Time;durP1;ratioP1;P1;durP2;ratioP2;P2;SDS_P1;SDS_P2;PMS_P1;PMS_P2;Temp;Humidity;BMP_temperature;BMP_pressure;BME280_temperature;BME280_humidity;BME280_pressure;Samples;Min_cycle;Max_cycle;Signal;HPM_P1;HPM_P2
2022/10/03 00:01:04;;;;;;;19.08;2.58;;;;;;;;;;5035232;28;20436;-66
2022/10/03 00:03:35;;;;;;;13.02;2.53;;;;;;;;;;5034796;28;20406;-66
2022/10/03 00:06:01;;;;;;;14.32;2.78;;;;;;;;;;5034178;28;20407;-66
2022/10/03 00:08:46;;;;;;;14.93;3.28;;;;;;;;;;5034522;28;20128;-66
2022/10/03 00:11:12;;;;;;;15.45;2.63;;;;;;;;;;5018752;28;20049;-66
2022/10/03 00:13:48;;;;;;;11.52;2.20;;;;;;;;;;5014683;28;20203;-66
2022/10/03 00:16:18;;;;;;;9.95;2.00;;;;;;;;;;5015047;28;20041;-66
2022/10/03 00:18:47;;;;;;;17.35;2.33;;;;;;;;;;5015130;28;20045;-66
2022/10/03 00:21:25;;;;;;;14.73;2.25;;;;;;;;;;4998115;28;20049;-66
2022/10/03 00:23:51;;;;;;;12.30;2.63;;;;;;;;;;5015048;28;20073;-66
2022/10/03 00:26:31;;;;;;;11.07;2.10;;;;;;;;;;5032853;28;20143;-66
2022/10/03 00:28:57;;;;;;;11.82;2.22;;;;;;;;;;5014149;28;20403;-66
2022/10/03 00:31:24;;;;;;;10.30;2.30;;;;;;;;;;5014917;28;20033;-66
2022/10/03 00:34:00;;;;;;;11.35;2.55;;;;;;;;;;5014666;28;20129;-66
2022/10/03 00:36:44;;;;;;;10.82;2.22;;;;;;;;;;5014711;28;20081;-66
2022/10/03 00:39:10;;;;;;;18.15;2.58;;;;;;;;;;5032408;28;20254;-66
2022/10/03 00:41:55;;;;;;;12.73;2.42;;;;;;;;;;5014551;28;20041;-66
2022/10/03 00:44:37;;;;;;;9.65;2.00;;;;;;;;;;5014384;28;20037;-66
2022/10/03 00:47:15;;;;;;;10.40;2.63;;;;;;;;;;5014663;28;20480;-66
2022/10/03 00:49:56;;;;;;;13.82;2.20;;;;;;;;;;5013976;28;20558;-66
2022/10/03 00:52:29;;;;;;;14.52;2.38;;;;;;;;;;5014091;28;20037;-66
2022/10/03 00:55:14;;;;;;;13.98;2.40;;;;;;;;;;5014485;28;20056;-66
2022/10/03 00:57:59;;;;;;;9.30;1.88;;;;;;;;;;5031516;28;20053;-66
2022/10/03 01:00:35;;;;;;;13.15;2.45;;;;;;;;;;5013850;28;20052;-66
2022/10/03 01:03:39;;;;;;;12.32;1.90;;;;;;;;;;5013932;28;20500;-66
2022/10/03 01:06:16;;;;;;;11.13;2.40;;;;;;;;;;4949713;28;20528;-66
2022/10/03 01:08:42;;;;;;;18.45;2.40;;;;;;;;;;4950997;29;20058;-66
2022/10/03 01:11:26;;;;;;;18.88;2.40;;;;;;;;;;4982533;28;20046;-66
2022/10/03 01:14:04;;;;;;;12.63;2.70;;;;;;;;;;5013782;28;20400;-66
2022/10/03 01:16:43;;;;;;;9.82;1.88;;;;;;;;;;5013855;28;20487;-66
2022/10/03 01:19:09;;;;;;;7.70;1.92;;;;;;;;;;5031358;28;20045;-66
2022/10/03 01:21:38;;;;;;;13.18;1.95;;;;;;;;;;5013757;28;20488;-66
2022/10/03 01:24:19;;;;;;;14.70;2.08;;;;;;;;;;5013670;28;20120;-66
2022/10/03 01:26:44;;;;;;;10.75;2.05;;;;;;;;;;5012003;28;20056;-66
2022/10/03 01:32:15;;;;;;;9.77;2.22;;;;;;;;;;5051139;28;20120;-66
2022/10/03 01:34:41;;;;;;;7.35;2.28;;;;;;;;;;5050819;28;20479;-66
2022/10/03 01:37:17;;;;;;;10.70;2.47;;;;;;;;;;5033229;28;20047;-66
2022/10/03 01:39:52;;;;;;;10.65;2.13;;;;;;;;;;5033311;28;20080;-66
2022/10/03 01:42:41;;;;;;;10.95;2.00;;;;;;;;;;5051002;28;20445;-66
2022/10/03 01:45:12;;;;;;;12.00;2.13;;;;;;;;;;5022921;28;20138;-66
2022/10/03 01:47:41;;;;;;;13.32;2.17;;;;;;;;;;5033086;28;20485;-66
2022/10/03 01:50:19;;;;;;;10.77;2.08;;;;;;;;;;5032441;28;20127;-66
2022/10/03 01:53:05;;;;;;;9.02;1.80;;;;;;;;;;5032844;28;20037;-66
2022/10/03 01:55:55;;;;;;;12.20;2.50;;;;;;;;;;5051067;28;20044;-66
2022/10/03 01:58:40;;;;;;;12.27;2.20;;;;;;;;;;5022762;28;20503;-66
2022/10/03 02:01:11;;;;;;;14.63;2.15;;;;;;;;;;5032896;28;20083;-66
2022/10/03 02:03:44;;;;;;;10.63;2.07;;;;;;;;;;5031515;28;20066;-66
2022/10/03 02:06:19;;;;;;;8.57;1.80;;;;;;;;;;5016243;28;20296;-66
2022/10/03 02:08:45;;;;;;;11.05;2.22;;;;;;;;;;5032617;28;20436;-66
2022/10/03 02:11:21;;;;;;;10.35;1.75;;;;;;;;;;5032148;28;20052;-66
2022/10/03 02:13:51;;;;;;;7.07;1.50;;;;;;;;;;5032029;28;20045;-66
2022/10/03 02:16:20;;;;;;;11.48;1.73;;;;;;;;;;5050738;28;20051;-66
2022/10/03 02:18:47;;;;;;;9.00;2.08;;;;;;;;;;5049867;28;20124;-66
2022/10/03 02:21:13;;;;;;;8.05;1.85;;;;;;;;;;5032336;28;20080;-66
2022/10/03 02:23:42;;;;;;;9.63;1.90;;;;;;;;;;5032300;28;20106;-66
2022/10/03 02:26:14;;;;;;;9.57;1.73;;;;;;;;;;5050151;28;20053;-66
2022/10/03 02:28:54;;;;;;;16.40;2.90;;;;;;;;;;5032134;28;20087;-66
2022/10/03 02:31:32;;;;;;;8.07;1.80;;;;;;;;;;5032537;28;20459;-66
2022/10/03 02:34:04;;;;;;;10.00;2.13;;;;;;;;;;5049983;28;20064;-66
2022/10/03 02:36:30;;;;;;;6.65;2.00;;;;;;;;;;5032061;28;20068;-66
2022/10/03 02:39:20;;;;;;;12.18;2.58;;;;;;;;;;5050425;28;20095;-66
2022/10/03 02:41:46;;;;;;;10.85;2.08;;;;;;;;;;5049703;28;20040;-66
2022/10/03 02:44:18;;;;;;;13.52;1.90;;;;;;;;;;5032058;28;20347;-66
2022/10/03 02:47:02;;;;;;;8.60;2.47;;;;;;;;;;5032171;28;20495;-66
2022/10/03 02:49:47;;;;;;;15.68;2.70;;;;;;;;;;5031686;28;20045;-66
2022/10/03 02:52:13;;;;;;;12.00;2.42;;;;;;;;;;5050052;28;20041;-66
2022/10/03 02:54:58;;;;;;;9.80;1.90;;;;;;;;;;5031886;28;20059;-66
2022/10/03 02:57:39;;;;;;;11.05;2.20;;;;;;;;;;5050037;28;20037;-66
2022/10/03 03:00:14;;;;;;;8.35;2.22;;;;;;;;;;5049911;28;20570;-66
2022/10/03 03:03:00;;;;;;;11.30;2.22;;;;;;;;;;5031351;28;20136;-66
2022/10/03 03:05:45;;;;;;;10.98;2.10;;;;;;;;;;5031521;28;20116;-66
2022/10/03 03:08:23;;;;;;;10.07;2.00;;;;;;;;;;5031626;28;20037;-66
2022/10/03 03:10:49;;;;;;;12.75;2.17;;;;;;;;;;5048862;28;20114;-66
2022/10/03 03:13:25;;;;;;;11.90;1.98;;;;;;;;;;5031489;28;20438;-66
2022/10/03 03:16:09;;;;;;;5.97;1.83;;;;;;;;;;5015267;28;20499;-66
2022/10/03 03:18:46;;;;;;;10.63;1.90;;;;;;;;;;5031272;28;20474;-66
2022/10/03 03:21:12;;;;;;;10.30;1.90;;;;;;;;;;5031622;28;20391;-66
2022/10/03 03:23:38;;;;;;;13.80;2.50;;;;;;;;;;5048822;28;20045;-66
2022/10/03 03:26:13;;;;;;;9.75;2.08;;;;;;;;;;5014203;28;20080;-66
2022/10/03 03:28:39;;;;;;;8.35;1.75;;;;;;;;;;5031348;28;20033;-66
2022/10/03 03:31:17;;;;;;;10.23;2.03;;;;;;;;;;5032039;28;20056;-66
2022/10/03 03:34:03;;;;;;;7.78;1.60;;;;;;;;;;5048946;28;20048;-66
2022/10/03 03:36:35;;;;;;;16.45;1.95;;;;;;;;;;5049144;28;20048;-66
2022/10/03 03:39:07;;;;;;;9.50;2.50;;;;;;;;;;5031165;28;20090;-66
2022/10/03 03:41:52;;;;;;;8.82;1.80;;;;;;;;;;5031366;28;20488;-66
2022/10/03 03:44:30;;;;;;;11.00;1.95;;;;;;;;;;5031178;28;20118;-66
2022/10/03 03:47:08;;;;;;;6.97;1.85;;;;;;;;;;5048701;28;20045;-66
2022/10/03 03:50:06;;;;;;;9.18;2.00;;;;;;;;;;5049188;28;20040;-66
2022/10/03 03:52:33;;;;;;;6.15;1.85;;;;;;;;;;5004927;28;20052;-66
2022/10/03 03:55:02;;;;;;;7.43;1.95;;;;;;;;;;5048950;28;20069;-66
2022/10/03 03:57:46;;;;;;;8.38;2.13;;;;;;;;;;5014793;28;20041;-66
2022/10/03 04:00:14;;;;;;;9.23;2.03;;;;;;;;;;5049053;28;20134;-66
2022/10/03 04:02:55;;;;;;;8.35;2.05;;;;;;;;;;5030970;28;20041;-66
2022/10/03 04:05:25;;;;;;;11.23;2.35;;;;;;;;;;5048741;28;20076;-66
2022/10/03 04:07:54;;;;;;;10.73;2.30;;;;;;;;;;5030971;28;20044;-66
2022/10/03 04:10:41;;;;;;;12.13;2.22;;;;;;;;;;5030342;28;20355;-66
2022/10/03 04:13:10;;;;;;;9.65;1.98;;;;;;;;;;5014555;28;20136;-66
2022/10/03 04:15:44;;;;;;;7.93;1.95;;;;;;;;;;5031245;28;20041;-66
2022/10/03 04:21:21;;;;;;;7.97;1.67;;;;;;;;;;5030754;28;20049;-66
2022/10/03 04:23:51;;;;;;;6.78;1.58;;;;;;;;;;5031079;28;20232;-66
2022/10/03 04:26:20;;;;;;;5.47;1.90;;;;;;;;;;5049127;28;20487;-66
2022/10/03 04:29:11;;;;;;;8.80;2.35;;;;;;;;;;5030843;28;20530;-66
2022/10/03 04:31:40;;;;;;;10.60;2.53;;;;;;;;;;5031548;28;20048;-66
2022/10/03 04:34:09;;;;;;;8.30;1.80;;;;;;;;;;5031724;28;20041;-66
2022/10/03 04:36:54;;;;;;;9.18;2.10;;;;;;;;;;5034152;28;20051;-66
2022/10/03 04:39:35;;;;;;;8.40;1.52;;;;;;;;;;5035396;28;20061;-66
2022/10/03 04:42:22;;;;;;;4.47;1.55;;;;;;;;;;5035330;28;20052;-66
2022/10/03 04:44:56;;;;;;;9.52;2.50;;;;;;;;;;5035853;28;20093;-66
2022/10/03 04:47:26;;;;;;;13.50;3.80;;;;;;;;;;5034975;28;20132;-66
2022/10/03 04:49:58;;;;;;;9.43;1.88;;;;;;;;;;5035304;28;20525;-66
2022/10/03 04:52:42;;;;;;;16.38;1.77;;;;;;;;;;5035571;28;20499;-66
2022/10/03 04:55:25;;;;;;;6.25;1.67;;;;;;;;;;5053046;28;20052;-66
2022/10/03 04:57:54;;;;;;;7.75;1.90;;;;;;;;;;5035042;28;20133;-66
2022/10/03 05:00:23;;;;;;;10.65;1.80;;;;;;;;;;5035281;28;20077;-66
2022/10/03 05:03:12;;;;;;;8.82;2.20;;;;;;;;;;5031297;28;20099;-66
2022/10/03 05:05:55;;;;;;;5.75;1.80;;;;;;;;;;5034529;28;20048;-66
2022/10/03 05:08:21;;;;;;;7.70;1.85;;;;;;;;;;5036108;28;20723;-66
2022/10/03 05:10:54;;;;;;;8.55;2.10;;;;;;;;;;5053494;28;20148;-66
2022/10/03 05:13:20;;;;;;;6.60;1.92;;;;;;;;;;5053498;28;20384;-66
2022/10/03 05:16:05;;;;;;;7.28;1.60;;;;;;;;;;5052492;28;20071;-65
2022/10/03 05:18:40;;;;;;;6.18;1.80;;;;;;;;;;5052993;28;20095;-65
2022/10/03 05:21:15;;;;;;;9.45;2.03;;;;;;;;;;5053712;28;20143;-65
2022/10/03 05:23:49;;;;;;;6.43;1.80;;;;;;;;;;5036399;28;20428;-65
2022/10/03 05:26:29;;;;;;;6.93;1.90;;;;;;;;;;5033435;28;20055;-65
2022/10/03 05:29:14;;;;;;;7.15;1.77;;;;;;;;;;5032400;28;20045;-63
2022/10/03 05:31:49;;;;;;;4.53;1.50;;;;;;;;;;5046064;28;20406;-64
2022/10/03 05:34:35;;;;;;;8.48;1.80;;;;;;;;;;5033504;28;20449;-66
2022/10/03 05:37:24;;;;;;;10.05;2.20;;;;;;;;;;5033012;28;20106;-63
2022/10/03 05:39:58;;;;;;;10.40;3.05;;;;;;;;;;5032680;28;20107;-64
2022/10/03 05:42:23;;;;;;;10.02;2.08;;;;;;;;;;5017967;28;20045;-63
2022/10/03 05:44:57;;;;;;;11.65;2.28;;;;;;;;;;5032553;28;20512;-65
2022/10/03 05:47:47;;;;;;;10.23;2.30;;;;;;;;;;5031421;28;20072;-64
2022/10/03 05:50:17;;;;;;;9.93;1.90;;;;;;;;;;5050552;28;20120;-65
2022/10/03 05:52:55;;;;;;;9.32;2.20;;;;;;;;;;5050221;28;20060;-63
2022/10/03 05:55:24;;;;;;;9.90;2.22;;;;;;;;;;5051419;28;20487;-63
2022/10/03 05:58:09;;;;;;;8.27;2.25;;;;;;;;;;5050951;28;20045;-62
2022/10/03 06:00:49;;;;;;;15.55;2.90;;;;;;;;;;5058066;28;20067;-62
2022/10/03 06:03:35;;;;;;;16.67;2.05;;;;;;;;;;5042178;28;20059;-65
2022/10/03 06:06:19;;;;;;;8.05;2.08;;;;;;;;;;5047883;28;20048;-65
2022/10/03 06:08:51;;;;;;;13.32;2.55;;;;;;;;;;5032368;28;20047;-65
2022/10/03 06:11:33;;;;;;;8.73;2.00;;;;;;;;;;5050825;28;20049;-65
2022/10/03 06:14:14;;;;;;;8.65;2.08;;;;;;;;;;5050677;28;20041;-64
2022/10/03 06:16:52;;;;;;;10.55;2.15;;;;;;;;;;5050216;28;20053;-64
2022/10/03 06:19:38;;;;;;;10.40;2.50;;;;;;;;;;5051020;28;20380;-64
2022/10/03 06:22:22;;;;;;;8.68;2.20;;;;;;;;;;5009208;28;20048;-64
2022/10/03 06:25:08;;;;;;;7.97;1.77;;;;;;;;;;5032583;28;20052;-64
2022/10/03 06:27:49;;;;;;;7.88;2.10;;;;;;;;;;5045337;28;20133;-63
2022/10/03 06:30:15;;;;;;;8.75;2.10;;;;;;;;;;5064066;28;20037;-63
2022/10/03 06:33:00;;;;;;;8.57;2.13;;;;;;;;;;5054156;28;20044;-63
2022/10/03 06:35:45;;;;;;;8.38;2.33;;;;;;;;;;5059133;28;20109;-63
2022/10/03 06:38:29;;;;;;;9.60;2.55;;;;;;;;;;5056170;28;20037;-65
2022/10/03 06:41:05;;;;;;;10.90;2.10;;;;;;;;;;5040539;28;20044;-66
2022/10/03 06:43:49;;;;;;;6.75;2.30;;;;;;;;;;5035847;28;20045;-65
2022/10/03 06:46:21;;;;;;;10.40;2.70;;;;;;;;;;5049658;28;20072;-66
2022/10/03 06:49:00;;;;;;;8.90;2.10;;;;;;;;;;5049814;28;20065;-65
2022/10/03 06:51:28;;;;;;;10.43;1.88;;;;;;;;;;5050182;28;20043;-63
2022/10/03 06:54:02;;;;;;;10.32;2.10;;;;;;;;;;5049160;28;20082;-64
2022/10/03 06:56:37;;;;;;;6.78;2.10;;;;;;;;;;5048900;28;20040;-64
2022/10/03 06:59:29;;;;;;;9.68;2.17;;;;;;;;;;5051350;28;20044;-63
2022/10/03 07:02:05;;;;;;;17.25;2.33;;;;;;;;;;5049632;28;20434;-63
2022/10/03 07:04:45;;;;;;;12.30;2.80;;;;;;;;;;5049577;28;20072;-62
2022/10/03 07:07:14;;;;;;;11.68;2.58;;;;;;;;;;5048780;28;20045;-63
2022/10/03 07:10:00;;;;;;;10.73;2.15;;;;;;;;;;5048882;28;20589;-66
2022/10/03 07:12:46;;;;;;;14.05;2.42;;;;;;;;;;5047943;28;20364;-65
2022/10/03 07:15:16;;;;;;;10.48;2.33;;;;;;;;;;5031496;28;20048;-64
2022/10/03 07:18:00;;;;;;;10.50;2.00;;;;;;;;;;5031575;28;20548;-67
2022/10/03 07:20:45;;;;;;;10.05;2.50;;;;;;;;;;5030579;28;20142;-64
2022/10/03 07:23:31;;;;;;;11.02;2.55;;;;;;;;;;5022937;28;20063;-66
2022/10/03 07:26:27;;;;;;;11.63;2.75;;;;;;;;;;5053875;28;20045;-65
2022/10/03 07:29:01;;;;;;;9.77;2.15;;;;;;;;;;4994292;28;20050;-63
2022/10/03 07:31:35;;;;;;;10.32;2.00;;;;;;;;;;5060541;28;20386;-64
2022/10/03 07:34:04;;;;;;;9.18;2.20;;;;;;;;;;5055390;28;20447;-65
2022/10/03 07:39:35;;;;;;;10.52;2.45;;;;;;;;;;5049439;28;20044;-63
2022/10/03 07:42:20;;;;;;;10.90;3.15;;;;;;;;;;5049647;28;20053;-63
2022/10/03 07:44:50;;;;;;;15.48;3.00;;;;;;;;;;5032926;28;20228;-63
2022/10/03 07:47:28;;;;;;;8.20;2.30;;;;;;;;;;5049784;28;20068;-63
2022/10/03 07:50:16;;;;;;;21.13;5.70;;;;;;;;;;5049241;28;20052;-63
2022/10/03 07:53:01;;;;;;;13.23;3.13;;;;;;;;;;5069065;28;20041;-62
2022/10/03 07:55:30;;;;;;;14.52;2.60;;;;;;;;;;5060025;28;20041;-63
2022/10/03 07:58:02;;;;;;;10.02;2.45;;;;;;;;;;5048813;28;20040;-63
2022/10/03 08:00:40;;;;;;;11.68;2.70;;;;;;;;;;5063355;28;20041;-62
2022/10/03 08:03:25;;;;;;;11.63;2.92;;;;;;;;;;5049263;28;20041;-63
2022/10/03 08:06:06;;;;;;;8.48;1.60;;;;;;;;;;5056991;28;20036;-63
2022/10/03 08:08:55;;;;;;;14.40;4.20;;;;;;;;;;5067236;28;20048;-64
2022/10/03 08:11:32;;;;;;;14.65;2.22;;;;;;;;;;5069616;28;20052;-64
2022/10/03 08:14:20;;;;;;;9.35;2.38;;;;;;;;;;5060073;28;20041;-63
2022/10/03 08:16:46;;;;;;;7.22;1.67;;;;;;;;;;5052894;28;20052;-63
2022/10/03 08:19:15;;;;;;;10.63;1.88;;;;;;;;;;5035599;28;20041;-63
2022/10/03 08:21:51;;;;;;;10.80;1.90;;;;;;;;;;5052576;28;20037;-62
2022/10/03 08:24:33;;;;;;;10.82;1.90;;;;;;;;;;5053631;28;20041;-62
2022/10/03 08:27:07;;;;;;;12.60;2.00;;;;;;;;;;5052968;28;20049;-62
2022/10/03 08:29:51;;;;;;;9.25;2.38;;;;;;;;;;5052022;28;20056;-62
2022/10/03 08:32:35;;;;;;;13.18;2.50;;;;;;;;;;5053337;28;20037;-63
2022/10/03 08:35:17;;;;;;;9.90;2.80;;;;;;;;;;5068987;28;20043;-63
2022/10/03 08:38:02;;;;;;;9.80;2.03;;;;;;;;;;5046401;28;20048;-64
2022/10/03 08:40:55;;;;;;;10.90;1.50;;;;;;;;;;5065793;28;20036;-64
2022/10/03 08:43:40;;;;;;;11.75;1.73;;;;;;;;;;5066322;28;20048;-63
2022/10/03 08:46:08;;;;;;;8.18;1.70;;;;;;;;;;5065719;28;20037;-62
2022/10/03 08:48:53;;;;;;;8.07;1.42;;;;;;;;;;5060981;28;20043;-61
2022/10/03 08:51:39;;;;;;;12.40;1.77;;;;;;;;;;5065673;28;20040;-61
2022/10/03 08:54:09;;;;;;;9.18;1.70;;;;;;;;;;5060147;28;20052;-63
2022/10/03 08:56:42;;;;;;;9.40;1.73;;;;;;;;;;5051629;28;20388;-63
2022/10/03 08:59:27;;;;;;;11.50;2.22;;;;;;;;;;5044946;28;20056;-63
2022/10/03 09:02:13;;;;;;;8.23;1.38;;;;;;;;;;5072241;28;20052;-64
2022/10/03 09:04:58;;;;;;;6.68;1.65;;;;;;;;;;5062080;28;20071;-64
2022/10/03 09:07:42;;;;;;;11.57;1.48;;;;;;;;;;5053391;28;20041;-63
2022/10/03 09:10:27;;;;;;;10.02;1.70;;;;;;;;;;5064180;28;20506;-63
2022/10/03 09:13:08;;;;;;;12.23;1.77;;;;;;;;;;5059099;28;20052;-63
2022/10/03 09:15:43;;;;;;;12.15;1.48;;;;;;;;;;5069518;28;20036;-63
2022/10/03 09:18:10;;;;;;;8.57;1.75;;;;;;;;;;5064081;28;20119;-63
2022/10/03 09:20:36;;;;;;;11.38;1.65;;;;;;;;;;5060394;28;20098;-64
2022/10/03 09:23:21;;;;;;;11.18;1.80;;;;;;;;;;5031895;28;20090;-63
2022/10/03 09:25:50;;;;;;;12.82;1.85;;;;;;;;;;5051848;28;20041;-65
2022/10/03 09:28:35;;;;;;;11.38;1.60;;;;;;;;;;5050916;28;20045;-67
2022/10/03 09:31:04;;;;;;;10.85;1.38;;;;;;;;;;5051134;28;20082;-64
2022/10/03 09:33:44;;;;;;;6.00;0.90;;;;;;;;;;5057715;28;20033;-64
2022/10/03 09:36:16;;;;;;;10.02;1.75;;;;;;;;;;5060593;28;20123;-65
2022/10/03 09:39:01;;;;;;;12.80;2.05;;;;;;;;;;5043023;28;20045;-66
2022/10/03 09:41:36;;;;;;;8.07;1.40;;;;;;;;;;5068821;28;20258;-67
2022/10/03 09:44:08;;;;;;;9.23;1.35;;;;;;;;;;5059735;28;20090;-65
2022/10/03 09:46:34;;;;;;;7.00;1.70;;;;;;;;;;5044929;28;20131;-68
2022/10/03 09:49:03;;;;;;;11.18;1.00;;;;;;;;;;5049877;28;20445;-67
2022/10/03 09:51:33;;;;;;;14.02;1.45;;;;;;;;;;5035115;28;20045;-66
2022/10/03 09:54:18;;;;;;;10.10;1.63;;;;;;;;;;5053025;28;20043;-66
2022/10/03 09:56:59;;;;;;;4.90;1.10;;;;;;;;;;5050391;28;20115;-68
2022/10/03 09:59:51;;;;;;;10.63;1.42;;;;;;;;;;5049163;28;20041;-67
2022/10/03 10:02:36;;;;;;;10.30;1.20;;;;;;;;;;5051085;28;20041;-66
2022/10/03 10:05:08;;;;;;;14.73;1.23;;;;;;;;;;5054135;28;20044;-68
2022/10/03 10:07:49;;;;;;;11.18;1.98;;;;;;;;;;5028168;28;20041;-67
2022/10/03 10:10:34;;;;;;;9.25;1.08;;;;;;;;;;5031790;28;20115;-66
2022/10/03 10:13:00;;;;;;;10.40;1.33;;;;;;;;;;5052307;28;20060;-66
2022/10/03 10:15:26;;;;;;;8.25;1.02;;;;;;;;;;5032468;28;20041;-67
2022/10/03 10:17:55;;;;;;;7.35;1.50;;;;;;;;;;5050972;28;20068;-66
2022/10/03 10:20:28;;;;;;;8.80;1.65;;;;;;;;;;5039027;28;20128;-65
2022/10/03 10:22:57;;;;;;;11.85;1.40;;;;;;;;;;5043025;28;20048;-66
2022/10/03 10:25:32;;;;;;;7.72;1.38;;;;;;;;;;5031836;28;20071;-66
2022/10/03 10:28:01;;;;;;;9.25;1.20;;;;;;;;;;5015093;28;20064;-66
2022/10/03 10:30:36;;;;;;;5.40;1.40;;;;;;;;;;5052284;28;20106;-67
2022/10/03 10:33:23;;;;;;;8.98;1.17;;;;;;;;;;5032100;28;20048;-67
2022/10/03 10:35:50;;;;;;;6.78;1.02;;;;;;;;;;5049391;28;20055;-65
2022/10/03 10:38:24;;;;;;;8.80;1.58;;;;;;;;;;5049947;28;20049;-65
2022/10/03 10:41:10;;;;;;;6.53;1.13;;;;;;;;;;5032314;28;20053;-65
2022/10/03 10:43:56;;;;;;;11.80;3.80;;;;;;;;;;5038368;28;20099;-65
2022/10/03 10:46:41;;;;;;;3.75;1.00;;;;;;;;;;5033108;28;20057;-65
2022/10/03 10:49:19;;;;;;;5.97;0.90;;;;;;;;;;5032092;28;20487;-65
2022/10/03 10:51:56;;;;;;;6.13;1.15;;;;;;;;;;5050215;28;20068;-65
2022/10/03 10:54:38;;;;;;;7.63;1.05;;;;;;;;;;5050702;28;20044;-65
2022/10/03 10:57:04;;;;;;;12.20;1.10;;;;;;;;;;5031922;28;20123;-65
2022/10/03 10:59:42;;;;;;;5.82;1.08;;;;;;;;;;5050117;28;20049;-65
2022/10/03 11:02:24;;;;;;;8.38;1.27;;;;;;;;;;5050456;28;20056;-65
2022/10/03 11:05:28;;;;;;;8.20;1.55;;;;;;;;;;5050377;28;20040;-65
2022/10/03 11:07:55;;;;;;;8.85;1.50;;;;;;;;;;5036042;28;20484;-67
2022/10/03 11:10:23;;;;;;;4.18;1.08;;;;;;;;;;5065551;28;20233;-67
2022/10/03 11:12:49;;;;;;;8.23;0.98;;;;;;;;;;5069449;28;20471;-70
2022/10/03 11:15:35;;;;;;;7.70;1.40;;;;;;;;;;5047774;28;20041;-70
2022/10/03 11:18:14;;;;;;;4.80;1.15;;;;;;;;;;5031382;28;20044;-68
2022/10/03 11:20:59;;;;;;;6.97;1.10;;;;;;;;;;5031933;28;20475;-71
2022/10/03 11:23:38;;;;;;;6.05;1.23;;;;;;;;;;5031633;28;20080;-69
2022/10/03 11:26:23;;;;;;;4.97;1.08;;;;;;;;;;5031740;28;20433;-68
2022/10/03 11:29:15;;;;;;;6.18;1.20;;;;;;;;;;5049466;28;20064;-68
2022/10/03 11:31:41;;;;;;;;;;;;;;;;;;5030240;28;20041;-69
2022/10/03 11:34:10;;;;;;;8.68;1.13;;;;;;;;;;5030995;28;19927;-67
2022/10/03 11:36:41;;;;;;;9.35;1.13;;;;;;;;;;5050124;28;20102;-67
2022/10/03 11:39:28;;;;;;;10.25;1.70;;;;;;;;;;5049336;28;20110;-68
2022/10/03 11:42:04;;;;;;;5.25;1.00;;;;;;;;;;5048898;28;20170;-66
2022/10/03 11:44:31;;;;;;;6.93;1.20;;;;;;;;;;5049358;28;20193;-66
2022/10/03 11:46:57;;;;;;;7.57;1.30;;;;;;;;;;5048976;28;20128;-67
2022/10/03 11:49:23;;;;;;;6.82;1.05;;;;;;;;;;5048770;28;20088;-66
2022/10/03 11:52:16;;;;;;;6.05;1.10;;;;;;;;;;5051127;28;20048;-64
2022/10/03 11:54:45;;;;;;;5.60;1.33;;;;;;;;;;5045450;28;20052;-64
2022/10/03 11:57:30;;;;;;;7.10;1.30;;;;;;;;;;5050037;28;20661;-66
2022/10/03 11:59:57;;;;;;;8.20;1.10;;;;;;;;;;5049282;28;20029;-65
2022/10/03 12:02:37;;;;;;;8.02;1.23;;;;;;;;;;5031434;28;20037;-66
2022/10/03 12:05:15;;;;;;;6.47;1.00;;;;;;;;;;5032575;28;20048;-66
2022/10/03 12:10:46;;;;;;;8.02;1.38;;;;;;;;;;5030361;28;20353;-69
2022/10/03 12:13:17;;;;;;;7.80;1.40;;;;;;;;;;5049208;28;20068;-66
2022/10/03 12:15:47;;;;;;;6.90;1.55;;;;;;;;;;5014801;28;20099;-67
2022/10/03 12:18:20;;;;;;;6.65;1.02;;;;;;;;;;5048166;28;20052;-65
2022/10/03 12:21:06;;;;;;;5.88;1.52;;;;;;;;;;5048918;28;20060;-64
2022/10/03 12:23:44;;;;;;;8.02;1.40;;;;;;;;;;5029149;28;20056;-65
2022/10/03 12:26:15;;;;;;;7.00;1.00;;;;;;;;;;5049034;28;20049;-64
2022/10/03 12:28:44;;;;;;;5.32;0.90;;;;;;;;;;5048898;28;20037;-64
2022/10/03 12:31:23;;;;;;;7.45;1.48;;;;;;;;;;5049033;28;20036;-63
2022/10/03 12:33:56;;;;;;;6.97;1.15;;;;;;;;;;5030942;28;20068;-65
2022/10/03 12:36:27;;;;;;;6.47;1.10;;;;;;;;;;5049081;28;20037;-65
2022/10/03 12:38:53;;;;;;;5.60;1.02;;;;;;;;;;5049523;28;20679;-64
2022/10/03 12:41:19;;;;;;;4.28;0.82;;;;;;;;;;5048923;28;20428;-65
2022/10/03 12:44:04;;;;;;;6.22;1.00;;;;;;;;;;5049096;28;20094;-64
2022/10/03 12:46:30;;;;;;;5.55;0.93;;;;;;;;;;5049765;28;20129;-64
2022/10/03 12:48:59;;;;;;;5.30;1.05;;;;;;;;;;5048431;28;20049;-66
2022/10/03 12:51:34;;;;;;;6.25;1.35;;;;;;;;;;5049187;28;20037;-64
2022/10/03 12:54:03;;;;;;;6.93;1.10;;;;;;;;;;5048985;28;20041;-64
2022/10/03 12:56:36;;;;;;;6.40;1.13;;;;;;;;;;5049337;28;20037;-68
2022/10/03 12:59:02;;;;;;;5.60;1.10;;;;;;;;;;5018211;28;20041;-66
2022/10/03 13:01:36;;;;;;;7.13;1.15;;;;;;;;;;5052814;28;20505;-67
2022/10/03 13:04:05;;;;;;;4.22;1.38;;;;;;;;;;5051451;28;20037;-69
2022/10/03 13:06:50;;;;;;;8.90;1.02;;;;;;;;;;5034332;28;20507;-66
2022/10/03 13:09:26;;;;;;;7.93;1.30;;;;;;;;;;5051708;28;20052;-64
2022/10/03 13:11:58;;;;;;;6.95;1.27;;;;;;;;;;5051622;28;20076;-64
2022/10/03 13:14:42;;;;;;;8.20;1.35;;;;;;;;;;5051863;28;20471;-64
2022/10/03 13:17:08;;;;;;;5.28;1.08;;;;;;;;;;5051707;28;20048;-64
2022/10/03 13:19:50;;;;;;;4.30;1.20;;;;;;;;;;5051862;28;20124;-64
2022/10/03 13:22:22;;;;;;;4.13;1.10;;;;;;;;;;5052146;28;20395;-67
2022/10/03 13:24:56;;;;;;;10.00;1.30;;;;;;;;;;5051927;28;20045;-67
2022/10/03 13:27:29;;;;;;;5.05;0.95;;;;;;;;;;5033762;28;20403;-67
2022/10/03 13:29:58;;;;;;;7.47;0.88;;;;;;;;;;5016498;28;20574;-65
2022/10/03 13:32:32;;;;;;;7.03;1.42;;;;;;;;;;5051163;28;20041;-65
2022/10/03 13:37:56;;;;;;;5.72;1.00;;;;;;;;;;5057296;28;20124;-65
2022/10/03 13:40:24;;;;;;;5.93;1.40;;;;;;;;;;5071619;28;20044;-65
2022/10/03 13:42:54;;;;;;;4.25;0.90;;;;;;;;;;5066586;28;20048;-64
2022/10/03 13:45:24;;;;;;;5.15;1.00;;;;;;;;;;5052747;28;20056;-65
2022/10/03 13:47:56;;;;;;;4.55;1.00;;;;;;;;;;5053405;28;20493;-64
2022/10/03 13:50:29;;;;;;;3.83;1.00;;;;;;;;;;5032462;28;20061;-64
2022/10/03 13:52:59;;;;;;;6.65;1.20;;;;;;;;;;5051942;28;20159;-66
2022/10/03 13:55:28;;;;;;;7.70;1.02;;;;;;;;;;5050538;28;20080;-65
2022/10/03 13:57:54;;;;;;;5.38;1.08;;;;;;;;;;5034792;28;20114;-65
2022/10/03 14:00:25;;;;;;;6.15;0.90;;;;;;;;;;5051887;28;20068;-65
2022/10/03 14:02:54;;;;;;;2.42;0.77;;;;;;;;;;5050798;28;20120;-65
2022/10/03 14:05:35;;;;;;;8.10;1.15;;;;;;;;;;5050291;28;20045;-66
2022/10/03 14:08:01;;;;;;;4.25;1.02;;;;;;;;;;5049092;28;20025;-66
2022/10/03 14:10:47;;;;;;;4.93;0.80;;;;;;;;;;5049588;28;20068;-66
2022/10/03 14:13:30;;;;;;;6.45;1.20;;;;;;;;;;5049423;28;20063;-66
2022/10/03 14:16:15;;;;;;;5.68;1.10;;;;;;;;;;5049863;28;20149;-65
2022/10/03 14:18:55;;;;;;;4.25;0.90;;;;;;;;;;5039346;28;20099;-66
2022/10/03 14:21:27;;;;;;;5.10;1.13;;;;;;;;;;5051716;28;20040;-64
2022/10/03 14:24:00;;;;;;;9.07;1.13;;;;;;;;;;5050998;28;20052;-65
2022/10/03 14:26:35;;;;;;;9.27;1.20;;;;;;;;;;5051599;28;20045;-64
2022/10/03 14:29:15;;;;;;;4.65;0.93;;;;;;;;;;5050696;28;20037;-63
2022/10/03 14:31:51;;;;;;;6.95;1.13;;;;;;;;;;5066358;28;20120;-63
2022/10/03 14:34:32;;;;;;;7.90;1.25;;;;;;;;;;5066481;28;20494;-64
2022/10/03 14:37:13;;;;;;;5.63;0.93;;;;;;;;;;5051276;28;20041;-66
2022/10/03 14:39:49;;;;;;;5.05;0.90;;;;;;;;;;5033076;28;20080;-65
2022/10/03 14:42:21;;;;;;;7.22;1.20;;;;;;;;;;5033473;28;20041;-65
2022/10/03 14:44:47;;;;;;;;;;;;;;;;;;5033779;28;20049;-65
2022/10/03 14:47:15;;;;;;;6.00;1.20;;;;;;;;;;5033023;28;20276;-65
2022/10/03 14:49:53;;;;;;;6.78;0.95;;;;;;;;;;5032978;28;20049;-65
2022/10/03 14:52:25;;;;;;;3.95;0.98;;;;;;;;;;5050985;28;20037;-65
2022/10/03 14:54:53;;;;;;;5.88;1.08;;;;;;;;;;5050889;28;20033;-65
2022/10/03 14:57:26;;;;;;;7.75;1.00;;;;;;;;;;5051254;28;20036;-65
2022/10/03 14:59:56;;;;;;;5.60;1.27;;;;;;;;;;5033292;28;20045;-65
2022/10/03 15:02:28;;;;;;;7.47;1.48;;;;;;;;;;5032714;28;20411;-65
2022/10/03 15:04:54;;;;;;;;;;;;;;;;;;5051621;28;20528;-65
2022/10/03 15:07:40;;;;;;;5.95;1.10;;;;;;;;;;5032664;28;19921;-65
2022/10/03 15:10:09;;;;;;;7.40;1.45;;;;;;;;;;5032877;28;20053;-65
2022/10/03 15:12:36;;;;;;;5.93;0.88;;;;;;;;;;5051100;28;20041;-65
2022/10/03 15:15:06;;;;;;;8.07;1.20;;;;;;;;;;5032626;28;20041;-65
2022/10/03 15:17:42;;;;;;;7.03;1.25;;;;;;;;;;5050947;28;20037;-65
2022/10/03 15:20:10;;;;;;;10.02;1.23;;;;;;;;;;5049697;28;20040;-65
2022/10/03 15:22:38;;;;;;;8.52;1.20;;;;;;;;;;5032440;28;20476;-65
2022/10/03 15:25:05;;;;;;;4.05;0.90;;;;;;;;;;5032864;28;20067;-65
2022/10/03 15:27:31;;;;;;;6.63;1.33;;;;;;;;;;5032521;28;20082;-65
2022/10/03 15:29:59;;;;;;;6.03;1.25;;;;;;;;;;5032394;28;20051;-65
2022/10/03 15:32:34;;;;;;;7.75;1.10;;;;;;;;;;5050520;28;20068;-65
2022/10/03 15:35:01;;;;;;;6.78;1.52;;;;;;;;;;5050717;28;20037;-65
2022/10/03 15:37:47;;;;;;;7.80;1.20;;;;;;;;;;5032156;28;20045;-65
2022/10/03 15:40:32;;;;;;;5.65;1.38;;;;;;;;;;5032688;28;20048;-65
2022/10/03 15:43:03;;;;;;;6.40;1.40;;;;;;;;;;5032530;28;20087;-65
2022/10/03 15:45:31;;;;;;;4.68;1.10;;;;;;;;;;5050297;28;20832;-65